sensor_id;sensor_type;location;lat;lon;timestamp;temperature;humidity
53053;DHT22;38934;52.690;6.184;2023-07-09T00:00:54;22.20;99.90
53053;DHT22;38934;52.690;6.184;2023-07-09T00:03:20;22.10;99.90
53053;DHT22;38934;52.690;6.184;2023-07-09T00:05:48;22.00;99.90
53053;DHT22;38934;52.690;6.184;2023-07-09T00:08:30;22.00;99.90
53053;DHT22;38934;52.690;6.184;2023-07-09T00:10:57;22.00;99.90
53053;DHT22;38934;52.690;6.184;2023-07-09T00:13:24;21.90;99.90
53053;DHT22;38934;52.690;6.184;2023-07-09T00:15:50;21.90;99.90
53053;DHT22;38934;52.690;6.184;2023-07-09T00:18:16;21.80;99.90
53053;DHT22;38934;52.690;6.184;2023-07-09T00:20:42;21.80;99.90
53053;DHT22;38934;52.690;6.184;2023-07-09T00:23:10;21.70;99.90
53053;DHT22;38934;52.690;6.184;2023-07-09T00:25:42;21.70;99.90
53053;DHT22;38934;52.690;6.184;2023-07-09T00:28:17;21.70;99.90
53053;DHT22;38934;52.690;6.184;2023-07-09T00:30:44;21.60;99.90
53053;DHT22;38934;52.690;6.184;2023-07-09T00:33:19;21.50;99.90
53053;DHT22;38934;52.690;6.184;2023-07-09T00:35:46;21.50;99.90
53053;DHT22;38934;52.690;6.184;2023-07-09T00:38:19;21.40;99.90
53053;DHT22;38934;52.690;6.184;2023-07-09T00:41:12;21.40;99.90
53053;DHT22;38934;52.690;6.184;2023-07-09T00:43:43;21.30;99.90
53053;DHT22;38934;52.690;6.184;2023-07-09T00:49:01;21.30;99.90
53053;DHT22;38934;52.690;6.184;2023-07-09T00:51:30;21.30;99.90
53053;DHT22;38934;52.690;6.184;2023-07-09T00:53:59;21.20;99.90
53053;DHT22;38934;52.690;6.184;2023-07-09T00:56:33;21.10;99.90
53053;DHT22;38934;52.690;6.184;2023-07-09T00:59:05;21.10;99.90
53053;DHT22;38934;52.690;6.184;2023-07-09T01:01:34;21.10;99.90
53053;DHT22;38934;52.690;6.184;2023-07-09T01:04:01;21.00;99.90
53053;DHT22;38934;52.690;6.184;2023-07-09T01:06:35;21.00;99.90
53053;DHT22;38934;52.690;6.184;2023-07-09T01:09:04;20.90;99.90
53053;DHT22;38934;52.690;6.184;2023-07-09T01:11:31;20.90;99.90
53053;DHT22;38934;52.690;6.184;2023-07-09T01:14:01;20.80;99.90
53053;DHT22;38934;52.690;6.184;2023-07-09T01:16:30;20.80;99.90
53053;DHT22;38934;52.690;6.184;2023-07-09T01:18:57;20.70;99.90
53053;DHT22;38934;52.690;6.184;2023-07-09T01:21:23;20.60;99.90
53053;DHT22;38934;52.690;6.184;2023-07-09T01:23:50;20.70;99.90
53053;DHT22;38934;52.690;6.184;2023-07-09T01:26:22;20.70;99.90
53053;DHT22;38934;52.690;6.184;2023-07-09T01:28:50;20.60;99.90
53053;DHT22;38934;52.690;6.184;2023-07-09T01:31:16;20.60;99.90
53053;DHT22;38934;52.690;6.184;2023-07-09T01:33:44;20.60;99.90
53053;DHT22;38934;52.690;6.184;2023-07-09T01:36:15;20.50;99.90
53053;DHT22;38934;52.690;6.184;2023-07-09T01:38:42;20.50;99.90
53053;DHT22;38934;52.690;6.184;2023-07-09T01:41:08;20.50;99.90
53053;DHT22;38934;52.690;6.184;2023-07-09T01:43:40;20.40;99.90
53053;DHT22;38934;52.690;6.184;2023-07-09T01:46:07;20.40;99.90
53053;DHT22;38934;52.690;6.184;2023-07-09T01:48:34;20.40;99.90
53053;DHT22;38934;52.690;6.184;2023-07-09T01:51:10;20.40;99.90
53053;DHT22;38934;52.690;6.184;2023-07-09T01:53:38;20.40;99.90
53053;DHT22;38934;52.690;6.184;2023-07-09T01:56:04;20.40;99.90
53053;DHT22;38934;52.690;6.184;2023-07-09T01:58:29;20.30;99.90
53053;DHT22;38934;52.690;6.184;2023-07-09T02:00:58;20.30;99.90
53053;DHT22;38934;52.690;6.184;2023-07-09T02:03:24;20.30;99.90
53053;DHT22;38934;52.690;6.184;2023-07-09T02:05:53;20.20;99.90
53053;DHT22;38934;52.690;6.184;2023-07-09T02:08:19;20.20;99.90
53053;DHT22;38934;52.690;6.184;2023-07-09T02:10:47;20.20;99.90
53053;DHT22;38934;52.690;6.184;2023-07-09T02:13:13;20.20;99.90
53053;DHT22;38934;52.690;6.184;2023-07-09T02:15:39;20.20;99.90
53053;DHT22;38934;52.690;6.184;2023-07-09T02:18:09;20.20;99.90
53053;DHT22;38934;52.690;6.184;2023-07-09T02:20:34;20.20;99.90
53053;DHT22;38934;52.690;6.184;2023-07-09T02:23:00;20.20;99.90
53053;DHT22;38934;52.690;6.184;2023-07-09T02:25:26;20.20;99.90
53053;DHT22;38934;52.690;6.184;2023-07-09T02:27:51;20.10;99.90
53053;DHT22;38934;52.690;6.184;2023-07-09T02:30:17;20.10;99.90
53053;DHT22;38934;52.690;6.184;2023-07-09T02:32:43;20.10;99.90
53053;DHT22;38934;52.690;6.184;2023-07-09T02:35:08;20.20;99.90
53053;DHT22;38934;52.690;6.184;2023-07-09T02:37:34;20.20;99.90
53053;DHT22;38934;52.690;6.184;2023-07-09T02:40:00;20.10;99.90
53053;DHT22;38934;52.690;6.184;2023-07-09T02:42:25;20.20;99.90
53053;DHT22;38934;52.690;6.184;2023-07-09T02:44:51;20.20;99.90
53053;DHT22;38934;52.690;6.184;2023-07-09T02:47:17;20.20;99.90
53053;DHT22;38934;52.690;6.184;2023-07-09T02:49:43;20.20;99.90
53053;DHT22;38934;52.690;6.184;2023-07-09T02:52:09;20.20;99.90
53053;DHT22;38934;52.690;6.184;2023-07-09T02:54:35;20.20;99.90
53053;DHT22;38934;52.690;6.184;2023-07-09T02:57:01;20.10;99.90
53053;DHT22;38934;52.690;6.184;2023-07-09T02:59:26;20.10;99.90
53053;DHT22;38934;52.690;6.184;2023-07-09T03:01:55;20.10;99.90
53053;DHT22;38934;52.690;6.184;2023-07-09T03:04:21;20.10;99.90
53053;DHT22;38934;52.690;6.184;2023-07-09T03:06:46;20.10;99.90
53053;DHT22;38934;52.690;6.184;2023-07-09T03:09:12;20.20;99.90
53053;DHT22;38934;52.690;6.184;2023-07-09T03:11:38;20.10;99.90
53053;DHT22;38934;52.690;6.184;2023-07-09T03:14:04;20.10;99.90
53053;DHT22;38934;52.690;6.184;2023-07-09T03:16:32;20.00;99.90
53053;DHT22;38934;52.690;6.184;2023-07-09T03:18:58;20.10;99.90
53053;DHT22;38934;52.690;6.184;2023-07-09T03:21:25;20.00;99.90
53053;DHT22;38934;52.690;6.184;2023-07-09T03:23:51;20.10;99.90
53053;DHT22;38934;52.690;6.184;2023-07-09T03:26:17;20.10;99.90
53053;DHT22;38934;52.690;6.184;2023-07-09T03:28:43;20.10;99.90
53053;DHT22;38934;52.690;6.184;2023-07-09T03:31:08;20.10;99.90
53053;DHT22;38934;52.690;6.184;2023-07-09T03:33:34;20.10;99.90
53053;DHT22;38934;52.690;6.184;2023-07-09T03:36:00;20.10;99.90
53053;DHT22;38934;52.690;6.184;2023-07-09T03:38:26;20.10;99.90
53053;DHT22;38934;52.690;6.184;2023-07-09T03:40:55;20.20;99.90
53053;DHT22;38934;52.690;6.184;2023-07-09T03:43:21;20.20;99.90
53053;DHT22;38934;52.690;6.184;2023-07-09T03:45:47;20.20;99.90
53053;DHT22;38934;52.690;6.184;2023-07-09T03:48:14;20.10;99.90
53053;DHT22;38934;52.690;6.184;2023-07-09T03:50:41;20.20;99.90
53053;DHT22;38934;52.690;6.184;2023-07-09T03:53:07;20.30;99.90
53053;DHT22;38934;52.690;6.184;2023-07-09T03:55:33;20.30;99.90
53053;DHT22;38934;52.690;6.184;2023-07-09T03:57:58;20.30;99.90
53053;DHT22;38934;52.690;6.184;2023-07-09T04:00:24;20.40;99.90
53053;DHT22;38934;52.690;6.184;2023-07-09T04:02:50;20.40;99.90
53053;DHT22;38934;52.690;6.184;2023-07-09T04:05:16;20.40;99.90
53053;DHT22;38934;52.690;6.184;2023-07-09T04:07:43;20.40;99.90
53053;DHT22;38934;52.690;6.184;2023-07-09T04:10:09;20.40;99.90
53053;DHT22;38934;52.690;6.184;2023-07-09T04:12:35;20.50;99.90
53053;DHT22;38934;52.690;6.184;2023-07-09T04:15:05;20.50;99.90
53053;DHT22;38934;52.690;6.184;2023-07-09T04:17:31;20.60;99.90
53053;DHT22;38934;52.690;6.184;2023-07-09T04:19:57;20.70;99.90
53053;DHT22;38934;52.690;6.184;2023-07-09T04:22:23;20.70;99.90
53053;DHT22;38934;52.690;6.184;2023-07-09T04:24:49;20.80;99.90
53053;DHT22;38934;52.690;6.184;2023-07-09T04:27:15;20.80;99.90
53053;DHT22;38934;52.690;6.184;2023-07-09T04:29:41;20.90;99.90
53053;DHT22;38934;52.690;6.184;2023-07-09T04:32:13;21.00;99.90
53053;DHT22;38934;52.690;6.184;2023-07-09T04:34:39;21.00;99.90
53053;DHT22;38934;52.690;6.184;2023-07-09T04:37:09;21.10;99.90
53053;DHT22;38934;52.690;6.184;2023-07-09T04:39:36;21.20;99.90
53053;DHT22;38934;52.690;6.184;2023-07-09T04:42:02;21.30;99.90
53053;DHT22;38934;52.690;6.184;2023-07-09T04:44:28;21.30;99.90
53053;DHT22;38934;52.690;6.184;2023-07-09T04:46:53;21.40;99.90
53053;DHT22;38934;52.690;6.184;2023-07-09T04:49:19;21.40;99.90
53053;DHT22;38934;52.690;6.184;2023-07-09T04:51:45;21.40;99.90
53053;DHT22;38934;52.690;6.184;2023-07-09T04:54:10;21.50;99.90
53053;DHT22;38934;52.690;6.184;2023-07-09T04:56:36;21.60;99.90
53053;DHT22;38934;52.690;6.184;2023-07-09T04:59:03;21.70;99.90
53053;DHT22;38934;52.690;6.184;2023-07-09T05:01:28;21.70;99.90
53053;DHT22;38934;52.690;6.184;2023-07-09T05:03:54;21.80;99.90
53053;DHT22;38934;52.690;6.184;2023-07-09T05:06:20;21.70;99.90
53053;DHT22;38934;52.690;6.184;2023-07-09T05:08:47;21.90;99.90
53053;DHT22;38934;52.690;6.184;2023-07-09T05:11:14;22.10;99.90
53053;DHT22;38934;52.690;6.184;2023-07-09T05:13:40;22.30;99.90
53053;DHT22;38934;52.690;6.184;2023-07-09T05:16:05;22.30;99.90
53053;DHT22;38934;52.690;6.184;2023-07-09T05:18:31;22.30;99.90
53053;DHT22;38934;52.690;6.184;2023-07-09T05:20:57;22.30;99.90
53053;DHT22;38934;52.690;6.184;2023-07-09T05:23:24;22.20;99.90
53053;DHT22;38934;52.690;6.184;2023-07-09T05:25:58;22.20;99.90
53053;DHT22;38934;52.690;6.184;2023-07-09T05:28:24;22.20;99.90
53053;DHT22;38934;52.690;6.184;2023-07-09T05:30:50;22.20;99.90
53053;DHT22;38934;52.690;6.184;2023-07-09T05:33:17;22.30;99.90
53053;DHT22;38934;52.690;6.184;2023-07-09T05:35:44;22.30;99.90
53053;DHT22;38934;52.690;6.184;2023-07-09T05:38:10;22.30;99.90
53053;DHT22;38934;52.690;6.184;2023-07-09T05:40:36;22.50;99.90
53053;DHT22;38934;52.690;6.184;2023-07-09T05:43:01;22.60;99.90
53053;DHT22;38934;52.690;6.184;2023-07-09T05:45:27;22.70;99.90
53053;DHT22;38934;52.690;6.184;2023-07-09T05:47:52;22.80;99.90
53053;DHT22;38934;52.690;6.184;2023-07-09T05:50:18;23.00;99.90
53053;DHT22;38934;52.690;6.184;2023-07-09T05:52:44;23.20;99.90
53053;DHT22;38934;52.690;6.184;2023-07-09T05:55:09;23.30;99.90
53053;DHT22;38934;52.690;6.184;2023-07-09T05:57:35;23.60;99.90
53053;DHT22;38934;52.690;6.184;2023-07-09T06:00:01;24.00;99.90
53053;DHT22;38934;52.690;6.184;2023-07-09T06:02:26;24.50;99.90
53053;DHT22;38934;52.690;6.184;2023-07-09T06:04:52;25.00;99.90
53053;DHT22;38934;52.690;6.184;2023-07-09T06:07:18;25.70;99.90
53053;DHT22;38934;52.690;6.184;2023-07-09T06:09:44;26.10;99.90
53053;DHT22;38934;52.690;6.184;2023-07-09T06:12:11;26.60;99.90
53053;DHT22;38934;52.690;6.184;2023-07-09T06:14:37;26.90;99.90
53053;DHT22;38934;52.690;6.184;2023-07-09T06:17:03;27.20;99.90
53053;DHT22;38934;52.690;6.184;2023-07-09T06:19:28;27.60;99.90
53053;DHT22;38934;52.690;6.184;2023-07-09T06:21:54;27.90;99.90
53053;DHT22;38934;52.690;6.184;2023-07-09T06:24:21;28.20;99.90
53053;DHT22;38934;52.690;6.184;2023-07-09T06:26:47;28.30;99.90
53053;DHT22;38934;52.690;6.184;2023-07-09T06:29:13;28.40;99.90
53053;DHT22;38934;52.690;6.184;2023-07-09T06:31:38;28.20;99.90
53053;DHT22;38934;52.690;6.184;2023-07-09T06:34:06;28.00;99.90
53053;DHT22;38934;52.690;6.184;2023-07-09T06:36:35;27.60;99.90
53053;DHT22;38934;52.690;6.184;2023-07-09T06:39:01;27.30;99.90
53053;DHT22;38934;52.690;6.184;2023-07-09T06:41:26;27.10;99.90
53053;DHT22;38934;52.690;6.184;2023-07-09T06:43:53;27.00;99.90
53053;DHT22;38934;52.690;6.184;2023-07-09T06:46:19;27.20;99.90
53053;DHT22;38934;52.690;6.184;2023-07-09T06:48:45;27.90;99.90
53053;DHT22;38934;52.690;6.184;2023-07-09T06:51:11;28.60;99.90
53053;DHT22;38934;52.690;6.184;2023-07-09T06:53:36;29.50;99.90
53053;DHT22;38934;52.690;6.184;2023-07-09T06:56:03;30.20;99.90
53053;DHT22;38934;52.690;6.184;2023-07-09T06:58:31;30.80;99.90
53053;DHT22;38934;52.690;6.184;2023-07-09T07:00:57;31.20;99.90
53053;DHT22;38934;52.690;6.184;2023-07-09T07:03:23;31.50;99.90
53053;DHT22;38934;52.690;6.184;2023-07-09T07:05:51;31.90;99.90
53053;DHT22;38934;52.690;6.184;2023-07-09T07:08:20;32.30;99.20
53053;DHT22;38934;52.690;6.184;2023-07-09T07:10:48;32.40;97.00
53053;DHT22;38934;52.690;6.184;2023-07-09T07:13:13;32.50;95.90
53053;DHT22;38934;52.690;6.184;2023-07-09T07:15:40;32.60;95.40
53053;DHT22;38934;52.690;6.184;2023-07-09T07:18:06;32.70;94.70
53053;DHT22;38934;52.690;6.184;2023-07-09T07:20:33;32.90;94.30
53053;DHT22;38934;52.690;6.184;2023-07-09T07:22:58;33.10;93.60
53053;DHT22;38934;52.690;6.184;2023-07-09T07:25:24;33.50;93.20
53053;DHT22;38934;52.690;6.184;2023-07-09T07:27:50;34.00;92.20
53053;DHT22;38934;52.690;6.184;2023-07-09T07:30:17;34.40;91.30
53053;DHT22;38934;52.690;6.184;2023-07-09T07:32:45;34.70;90.70
53053;DHT22;38934;52.690;6.184;2023-07-09T07:35:12;34.80;89.70
53053;DHT22;38934;52.690;6.184;2023-07-09T07:37:40;34.80;88.20
53053;DHT22;38934;52.690;6.184;2023-07-09T07:40:08;34.70;87.20
53053;DHT22;38934;52.690;6.184;2023-07-09T07:42:34;34.70;85.50
53053;DHT22;38934;52.690;6.184;2023-07-09T07:45:00;34.40;85.10
53053;DHT22;38934;52.690;6.184;2023-07-09T07:47:26;34.20;84.60
53053;DHT22;38934;52.690;6.184;2023-07-09T07:49:55;34.20;84.50
53053;DHT22;38934;52.690;6.184;2023-07-09T07:52:21;34.00;84.00
53053;DHT22;38934;52.690;6.184;2023-07-09T07:54:46;34.20;85.10
53053;DHT22;38934;52.690;6.184;2023-07-09T07:57:12;34.30;84.40
53053;DHT22;38934;52.690;6.184;2023-07-09T07:59:41;34.30;83.90
53053;DHT22;38934;52.690;6.184;2023-07-09T08:02:11;33.90;83.70
53053;DHT22;38934;52.690;6.184;2023-07-09T08:04:37;34.00;84.20
53053;DHT22;38934;52.690;6.184;2023-07-09T08:07:03;34.10;84.20
53053;DHT22;38934;52.690;6.184;2023-07-09T08:09:29;34.20;84.30
53053;DHT22;38934;52.690;6.184;2023-07-09T08:11:55;34.30;84.10
53053;DHT22;38934;52.690;6.184;2023-07-09T08:14:21;34.30;82.90
53053;DHT22;38934;52.690;6.184;2023-07-09T08:16:47;34.40;82.90
53053;DHT22;38934;52.690;6.184;2023-07-09T08:19:13;34.30;82.00
53053;DHT22;38934;52.690;6.184;2023-07-09T08:21:38;34.50;82.10
53053;DHT22;38934;52.690;6.184;2023-07-09T08:24:04;34.80;82.40
53053;DHT22;38934;52.690;6.184;2023-07-09T08:26:30;35.10;82.00
53053;DHT22;38934;52.690;6.184;2023-07-09T08:28:56;35.20;80.90
53053;DHT22;38934;52.690;6.184;2023-07-09T08:31:22;35.50;81.10
53053;DHT22;38934;52.690;6.184;2023-07-09T08:33:48;35.70;81.50
53053;DHT22;38934;52.690;6.184;2023-07-09T08:36:14;35.80;78.90
53053;DHT22;38934;52.690;6.184;2023-07-09T08:38:39;35.90;77.40
53053;DHT22;38934;52.690;6.184;2023-07-09T08:48:59;36.30;77.10
53053;DHT22;38934;52.690;6.184;2023-07-09T08:51:38;36.60;76.10
53053;DHT22;38934;52.690;6.184;2023-07-09T08:54:09;36.80;73.00
53053;DHT22;38934;52.690;6.184;2023-07-09T08:56:37;37.00;74.00
53053;DHT22;38934;52.690;6.184;2023-07-09T08:59:03;37.20;73.50
53053;DHT22;38934;52.690;6.184;2023-07-09T09:01:39;37.30;72.00
53053;DHT22;38934;52.690;6.184;2023-07-09T09:04:19;36.80;69.80
53053;DHT22;38934;52.690;6.184;2023-07-09T09:06:50;36.30;72.00
53053;DHT22;38934;52.690;6.184;2023-07-09T09:09:31;36.30;71.40
53053;DHT22;38934;52.690;6.184;2023-07-09T09:12:21;36.50;72.10
53053;DHT22;38934;52.690;6.184;2023-07-09T09:15:03;36.80;71.80
53053;DHT22;38934;52.690;6.184;2023-07-09T09:17:34;37.00;71.80
53053;DHT22;38934;52.690;6.184;2023-07-09T09:20:03;37.10;71.30
53053;DHT22;38934;52.690;6.184;2023-07-09T09:25:18;37.20;71.50
53053;DHT22;38934;52.690;6.184;2023-07-09T09:27:46;37.30;70.90
53053;DHT22;38934;52.690;6.184;2023-07-09T09:30:16;37.40;70.80
53053;DHT22;38934;52.690;6.184;2023-07-09T09:32:49;37.50;70.70
53053;DHT22;38934;52.690;6.184;2023-07-09T09:35:18;37.30;69.60
53053;DHT22;38934;52.690;6.184;2023-07-09T09:37:53;37.20;70.50
53053;DHT22;38934;52.690;6.184;2023-07-09T09:40:20;37.30;70.20
53053;DHT22;38934;52.690;6.184;2023-07-09T09:42:49;37.40;70.90
53053;DHT22;38934;52.690;6.184;2023-07-09T09:45:17;37.40;70.60
53053;DHT22;38934;52.690;6.184;2023-07-09T09:47:44;37.40;70.10
53053;DHT22;38934;52.690;6.184;2023-07-09T09:50:18;37.30;69.90
53053;DHT22;38934;52.690;6.184;2023-07-09T09:52:46;37.20;69.30
53053;DHT22;38934;52.690;6.184;2023-07-09T09:55:25;37.10;69.90
53053;DHT22;38934;52.690;6.184;2023-07-09T09:57:53;36.80;68.60
53053;DHT22;38934;52.690;6.184;2023-07-09T10:00:23;36.30;68.80
53053;DHT22;38934;52.690;6.184;2023-07-09T10:02:50;35.70;68.30
53053;DHT22;38934;52.690;6.184;2023-07-09T10:05:49;35.40;69.20
53053;DHT22;38934;52.690;6.184;2023-07-09T10:10:58;35.20;70.40
53053;DHT22;38934;52.690;6.184;2023-07-09T10:13:33;35.30;70.50
53053;DHT22;38934;52.690;6.184;2023-07-09T10:16:08;35.50;70.40
53053;DHT22;38934;52.690;6.184;2023-07-09T10:24:54;34.70;71.00
53053;DHT22;38934;52.690;6.184;2023-07-09T10:27:26;34.50;71.80
53053;DHT22;38934;52.690;6.184;2023-07-09T10:30:17;34.20;72.20
53053;DHT22;38934;52.690;6.184;2023-07-09T10:33:10;34.20;72.80
53053;DHT22;38934;52.690;6.184;2023-07-09T10:39:00;34.50;72.90
53053;DHT22;38934;52.690;6.184;2023-07-09T10:41:18;34.50;72.80
53053;DHT22;38934;52.690;6.184;2023-07-09T10:43:59;34.70;73.10
53053;DHT22;38934;52.690;6.184;2023-07-09T10:46:32;34.80;73.80
53053;DHT22;38934;52.690;6.184;2023-07-09T10:49:00;34.90;73.90
53053;DHT22;38934;52.690;6.184;2023-07-09T10:51:37;34.90;72.80
53053;DHT22;38934;52.690;6.184;2023-07-09T10:54:24;35.00;71.90
53053;DHT22;38934;52.690;6.184;2023-07-09T10:59:33;34.90;71.30
53053;DHT22;38934;52.690;6.184;2023-07-09T11:05:03;34.90;72.00
53053;DHT22;38934;52.690;6.184;2023-07-09T11:07:42;34.70;71.80
53053;DHT22;38934;52.690;6.184;2023-07-09T11:10:23;34.50;72.30
53053;DHT22;38934;52.690;6.184;2023-07-09T11:13:04;34.60;71.70
53053;DHT22;38934;52.690;6.184;2023-07-09T11:15:41;34.50;70.40
53053;DHT22;38934;52.690;6.184;2023-07-09T11:18:11;34.40;71.60
53053;DHT22;38934;52.690;6.184;2023-07-09T11:20:42;34.40;72.30
53053;DHT22;38934;52.690;6.184;2023-07-09T11:23:20;34.40;72.70
53053;DHT22;38934;52.690;6.184;2023-07-09T11:26:01;34.30;72.80
53053;DHT22;38934;52.690;6.184;2023-07-09T11:28:34;34.30;73.80
53053;DHT22;38934;52.690;6.184;2023-07-09T11:31:06;34.40;75.10
53053;DHT22;38934;52.690;6.184;2023-07-09T11:33:32;34.50;74.00
53053;DHT22;38934;52.690;6.184;2023-07-09T11:36:10;34.60;73.70
53053;DHT22;38934;52.690;6.184;2023-07-09T11:38:45;34.50;73.20
53053;DHT22;38934;52.690;6.184;2023-07-09T11:44:14;34.60;74.30
53053;DHT22;38934;52.690;6.184;2023-07-09T11:47:22;34.60;74.40
53053;DHT22;38934;52.690;6.184;2023-07-09T11:54:52;34.40;73.80
53053;DHT22;38934;52.690;6.184;2023-07-09T11:57:19;34.20;73.70
53053;DHT22;38934;52.690;6.184;2023-07-09T11:59:45;34.10;73.40
53053;DHT22;38934;52.690;6.184;2023-07-09T12:02:21;33.90;73.80
53053;DHT22;38934;52.690;6.184;2023-07-09T12:04:51;34.00;74.30
53053;DHT22;38934;52.690;6.184;2023-07-09T12:07:20;34.10;74.20
53053;DHT22;38934;52.690;6.184;2023-07-09T12:09:50;34.10;73.80
53053;DHT22;38934;52.690;6.184;2023-07-09T12:12:21;34.20;74.20
53053;DHT22;38934;52.690;6.184;2023-07-09T12:14:48;34.30;73.90
53053;DHT22;38934;52.690;6.184;2023-07-09T12:17:14;34.40;73.70
53053;DHT22;38934;52.690;6.184;2023-07-09T12:19:40;34.50;73.80
53053;DHT22;38934;52.690;6.184;2023-07-09T12:22:18;34.60;74.30
53053;DHT22;38934;52.690;6.184;2023-07-09T12:24:45;34.70;73.70
53053;DHT22;38934;52.690;6.184;2023-07-09T12:27:19;34.80;73.40
53053;DHT22;38934;52.690;6.184;2023-07-09T12:29:45;34.90;73.60
53053;DHT22;38934;52.690;6.184;2023-07-09T12:32:13;35.00;73.80
53053;DHT22;38934;52.690;6.184;2023-07-09T12:34:40;35.10;73.20
53053;DHT22;38934;52.690;6.184;2023-07-09T12:37:10;35.10;72.90
53053;DHT22;38934;52.690;6.184;2023-07-09T12:39:37;35.10;72.50
53053;DHT22;38934;52.690;6.184;2023-07-09T12:42:03;35.00;72.40
53053;DHT22;38934;52.690;6.184;2023-07-09T12:44:35;35.00;72.60
53053;DHT22;38934;52.690;6.184;2023-07-09T12:47:01;34.90;70.90
53053;DHT22;38934;52.690;6.184;2023-07-09T12:49:29;34.70;71.30
53053;DHT22;38934;52.690;6.184;2023-07-09T12:52:01;34.60;71.70
53053;DHT22;38934;52.690;6.184;2023-07-09T12:54:30;34.40;70.60
53053;DHT22;38934;52.690;6.184;2023-07-09T12:56:59;34.30;71.40
53053;DHT22;38934;52.690;6.184;2023-07-09T12:59:26;34.10;71.60
53053;DHT22;38934;52.690;6.184;2023-07-09T13:04:59;33.80;72.20
53053;DHT22;38934;52.690;6.184;2023-07-09T13:07:39;33.60;72.70
53053;DHT22;38934;52.690;6.184;2023-07-09T13:10:16;33.40;72.80
53053;DHT22;38934;52.690;6.184;2023-07-09T13:12:45;33.30;73.30
53053;DHT22;38934;52.690;6.184;2023-07-09T13:15:24;33.20;73.80
53053;DHT22;38934;52.690;6.184;2023-07-09T13:17:57;33.10;75.40
53053;DHT22;38934;52.690;6.184;2023-07-09T13:20:24;32.80;77.50
53053;DHT22;38934;52.690;6.184;2023-07-09T13:22:49;32.60;78.00
53053;DHT22;38934;52.690;6.184;2023-07-09T13:25:16;32.40;80.80
53053;DHT22;38934;52.690;6.184;2023-07-09T13:27:41;32.20;82.90
53053;DHT22;38934;52.690;6.184;2023-07-09T13:30:09;32.00;86.20
53053;DHT22;38934;52.690;6.184;2023-07-09T13:32:34;31.80;90.20
53053;DHT22;38934;52.690;6.184;2023-07-09T13:35:00;31.80;92.40
53053;DHT22;38934;52.690;6.184;2023-07-09T13:37:28;31.90;96.40
53053;DHT22;38934;52.690;6.184;2023-07-09T13:39:53;32.00;94.30
53053;DHT22;38934;52.690;6.184;2023-07-09T13:42:19;32.30;94.90
53053;DHT22;38934;52.690;6.184;2023-07-09T13:44:46;32.70;95.60
53053;DHT22;38934;52.690;6.184;2023-07-09T13:47:13;32.90;93.60
53053;DHT22;38934;52.690;6.184;2023-07-09T13:49:42;33.20;93.00
53053;DHT22;38934;52.690;6.184;2023-07-09T13:52:18;33.40;92.20
53053;DHT22;38934;52.690;6.184;2023-07-09T13:54:45;33.50;90.90
53053;DHT22;38934;52.690;6.184;2023-07-09T13:57:19;33.50;90.60
53053;DHT22;38934;52.690;6.184;2023-07-09T13:59:45;33.60;89.40
53053;DHT22;38934;52.690;6.184;2023-07-09T14:02:25;33.70;88.80
53053;DHT22;38934;52.690;6.184;2023-07-09T14:04:55;33.90;88.80
53053;DHT22;38934;52.690;6.184;2023-07-09T14:07:26;33.90;89.50
53053;DHT22;38934;52.690;6.184;2023-07-09T14:09:52;34.00;88.80
53053;DHT22;38934;52.690;6.184;2023-07-09T14:12:17;33.90;88.00
53053;DHT22;38934;52.690;6.184;2023-07-09T14:14:43;33.70;87.20
53053;DHT22;38934;52.690;6.184;2023-07-09T14:17:12;33.50;86.70
53053;DHT22;38934;52.690;6.184;2023-07-09T14:19:37;33.40;87.70
53053;DHT22;38934;52.690;6.184;2023-07-09T14:22:18;33.20;88.80
53053;DHT22;38934;52.690;6.184;2023-07-09T14:24:46;32.90;87.40
53053;DHT22;38934;52.690;6.184;2023-07-09T14:27:12;32.70;88.30
53053;DHT22;38934;52.690;6.184;2023-07-09T14:29:37;32.30;89.00
53053;DHT22;38934;52.690;6.184;2023-07-09T14:32:04;31.90;89.80
53053;DHT22;38934;52.690;6.184;2023-07-09T14:34:32;31.30;88.10
53053;DHT22;38934;52.690;6.184;2023-07-09T14:37:00;30.80;90.00
53053;DHT22;38934;52.690;6.184;2023-07-09T14:39:27;30.30;92.40
53053;DHT22;38934;52.690;6.184;2023-07-09T14:41:53;29.70;98.90
53053;DHT22;38934;52.690;6.184;2023-07-09T14:44:30;29.00;99.90
53053;DHT22;38934;52.690;6.184;2023-07-09T14:46:58;28.20;99.90
53053;DHT22;38934;52.690;6.184;2023-07-09T14:49:25;27.40;99.90
53053;DHT22;38934;52.690;6.184;2023-07-09T14:51:52;26.70;99.90
53053;DHT22;38934;52.690;6.184;2023-07-09T14:54:19;26.10;99.90
53053;DHT22;38934;52.690;6.184;2023-07-09T14:56:47;25.70;99.90
53053;DHT22;38934;52.690;6.184;2023-07-09T14:59:12;25.20;99.90
53053;DHT22;38934;52.690;6.184;2023-07-09T15:01:38;24.70;99.90
53053;DHT22;38934;52.690;6.184;2023-07-09T15:06:51;24.20;99.90
53053;DHT22;38934;52.690;6.184;2023-07-09T15:09:24;23.90;99.90
53053;DHT22;38934;52.690;6.184;2023-07-09T15:11:58;23.60;99.90
53053;DHT22;38934;52.690;6.184;2023-07-09T15:14:26;23.30;99.90
53053;DHT22;38934;52.690;6.184;2023-07-09T15:16:52;23.00;99.90
53053;DHT22;38934;52.690;6.184;2023-07-09T15:19:21;22.70;99.90
53053;DHT22;38934;52.690;6.184;2023-07-09T15:21:48;22.50;99.90
53053;DHT22;38934;52.690;6.184;2023-07-09T15:24:22;22.40;99.90
53053;DHT22;38934;52.690;6.184;2023-07-09T15:26:53;22.30;99.90
53053;DHT22;38934;52.690;6.184;2023-07-09T15:29:20;22.20;99.90
53053;DHT22;38934;52.690;6.184;2023-07-09T15:31:46;22.00;99.90
53053;DHT22;38934;52.690;6.184;2023-07-09T15:34:12;21.90;99.90
53053;DHT22;38934;52.690;6.184;2023-07-09T15:36:45;21.80;99.90
53053;DHT22;38934;52.690;6.184;2023-07-09T15:39:13;21.70;99.90
53053;DHT22;38934;52.690;6.184;2023-07-09T15:41:39;21.70;99.90
53053;DHT22;38934;52.690;6.184;2023-07-09T15:44:08;21.60;99.90
53053;DHT22;38934;52.690;6.184;2023-07-09T15:46:34;21.60;99.90
53053;DHT22;38934;52.690;6.184;2023-07-09T15:48:59;21.50;99.90
53053;DHT22;38934;52.690;6.184;2023-07-09T15:51:25;21.60;99.90
53053;DHT22;38934;52.690;6.184;2023-07-09T15:53:51;21.50;99.90
53053;DHT22;38934;52.690;6.184;2023-07-09T15:56:28;21.40;99.90
53053;DHT22;38934;52.690;6.184;2023-07-09T15:58:56;21.40;99.90
53053;DHT22;38934;52.690;6.184;2023-07-09T16:01:23;21.40;99.90
53053;DHT22;38934;52.690;6.184;2023-07-09T16:03:50;21.40;99.90
53053;DHT22;38934;52.690;6.184;2023-07-09T16:06:17;21.30;99.90
53053;DHT22;38934;52.690;6.184;2023-07-09T16:08:44;21.30;99.90
53053;DHT22;38934;52.690;6.184;2023-07-09T16:11:20;21.50;99.90
53053;DHT22;38934;52.690;6.184;2023-07-09T16:13:47;21.70;99.90
53053;DHT22;38934;52.690;6.184;2023-07-09T16:16:19;21.70;99.90
53053;DHT22;38934;52.690;6.184;2023-07-09T16:18:45;21.60;99.90
53053;DHT22;38934;52.690;6.184;2023-07-09T16:21:27;21.60;99.90
53053;DHT22;38934;52.690;6.184;2023-07-09T16:23:56;21.40;99.90